sensor_id;sensor_type;location;lat;lon;timestamp;temperature;humidity
62573;DHT22;48626;51.678;5.806;2022-09-17T00:00:46;11.00;96.60
62573;DHT22;48626;51.678;5.806;2022-09-17T00:03:13;11.00;96.60
62573;DHT22;48626;51.678;5.806;2022-09-17T00:05:39;11.10;96.60
62573;DHT22;48626;51.678;5.806;2022-09-17T00:08:06;11.10;96.60
62573;DHT22;48626;51.678;5.806;2022-09-17T00:10:37;11.10;96.70
62573;DHT22;48626;51.678;5.806;2022-09-17T00:13:03;11.10;96.60
62573;DHT22;48626;51.678;5.806;2022-09-17T00:15:29;11.10;96.40
62573;DHT22;48626;51.678;5.806;2022-09-17T00:17:55;11.10;96.50
62573;DHT22;48626;51.678;5.806;2022-09-17T00:20:26;11.10;96.50
62573;DHT22;48626;51.678;5.806;2022-09-17T00:22:52;11.10;96.40
62573;DHT22;48626;51.678;5.806;2022-09-17T00:25:18;11.00;96.30
62573;DHT22;48626;51.678;5.806;2022-09-17T00:27:45;11.00;96.50
62573;DHT22;48626;51.678;5.806;2022-09-17T00:30:12;11.00;96.50
62573;DHT22;48626;51.678;5.806;2022-09-17T00:32:38;11.00;96.60
62573;DHT22;48626;51.678;5.806;2022-09-17T00:35:04;11.00;96.70
62573;DHT22;48626;51.678;5.806;2022-09-17T00:37:30;11.00;96.70
62573;DHT22;48626;51.678;5.806;2022-09-17T00:39:55;11.10;96.80
62573;DHT22;48626;51.678;5.806;2022-09-17T00:42:22;11.10;96.70
62573;DHT22;48626;51.678;5.806;2022-09-17T00:44:53;11.10;96.70
62573;DHT22;48626;51.678;5.806;2022-09-17T00:47:38;11.20;96.80
62573;DHT22;48626;51.678;5.806;2022-09-17T00:50:20;11.20;96.60
62573;DHT22;48626;51.678;5.806;2022-09-17T00:52:58;11.20;96.30
62573;DHT22;48626;51.678;5.806;2022-09-17T00:55:37;11.10;96.30
62573;DHT22;48626;51.678;5.806;2022-09-17T00:58:06;11.10;96.30
62573;DHT22;48626;51.678;5.806;2022-09-17T01:00:33;11.00;96.40
62573;DHT22;48626;51.678;5.806;2022-09-17T01:02:59;11.00;96.50
62573;DHT22;48626;51.678;5.806;2022-09-17T01:05:46;11.00;96.70
62573;DHT22;48626;51.678;5.806;2022-09-17T01:11:14;11.00;96.80
62573;DHT22;48626;51.678;5.806;2022-09-17T01:13:54;11.00;96.70
62573;DHT22;48626;51.678;5.806;2022-09-17T01:30:53;10.90;96.70
62573;DHT22;48626;51.678;5.806;2022-09-17T01:33:34;10.90;96.80
62573;DHT22;48626;51.678;5.806;2022-09-17T01:39:06;10.80;96.70
62573;DHT22;48626;51.678;5.806;2022-09-17T01:41:42;10.80;96.80
62573;DHT22;48626;51.678;5.806;2022-09-17T01:47:14;10.80;96.90
62573;DHT22;48626;51.678;5.806;2022-09-17T01:49:41;10.80;96.80
62573;DHT22;48626;51.678;5.806;2022-09-17T01:52:09;10.70;97.00
62573;DHT22;48626;51.678;5.806;2022-09-17T01:54:42;10.70;97.00
62573;DHT22;48626;51.678;5.806;2022-09-17T01:57:17;10.70;96.80
62573;DHT22;48626;51.678;5.806;2022-09-17T02:00:04;10.70;96.80
62573;DHT22;48626;51.678;5.806;2022-09-17T02:02:34;10.60;96.80
62573;DHT22;48626;51.678;5.806;2022-09-17T02:05:10;10.60;97.30
62573;DHT22;48626;51.678;5.806;2022-09-17T02:07:41;10.50;97.20
62573;DHT22;48626;51.678;5.806;2022-09-17T02:10:15;10.50;97.20
62573;DHT22;48626;51.678;5.806;2022-09-17T02:12:50;10.50;97.10
62573;DHT22;48626;51.678;5.806;2022-09-17T02:15:28;10.50;97.20
62573;DHT22;48626;51.678;5.806;2022-09-17T02:18:03;10.50;97.20
62573;DHT22;48626;51.678;5.806;2022-09-17T02:20:44;10.50;97.10
62573;DHT22;48626;51.678;5.806;2022-09-17T02:23:17;10.50;97.20
62573;DHT22;48626;51.678;5.806;2022-09-17T02:25:53;10.50;97.30
62573;DHT22;48626;51.678;5.806;2022-09-17T02:31:04;10.50;97.30
62573;DHT22;48626;51.678;5.806;2022-09-17T02:33:32;10.50;97.20
62573;DHT22;48626;51.678;5.806;2022-09-17T02:35:59;10.50;97.20
62573;DHT22;48626;51.678;5.806;2022-09-17T02:38:27;10.50;97.20
62573;DHT22;48626;51.678;5.806;2022-09-17T02:51:51;10.40;97.20
62573;DHT22;48626;51.678;5.806;2022-09-17T02:54:30;10.50;97.40
62573;DHT22;48626;51.678;5.806;2022-09-17T02:57:19;10.50;97.40
62573;DHT22;48626;51.678;5.806;2022-09-17T02:59:51;10.60;97.50
62573;DHT22;48626;51.678;5.806;2022-09-17T03:02:39;10.60;97.50
62573;DHT22;48626;51.678;5.806;2022-09-17T03:05:10;10.60;97.40
62573;DHT22;48626;51.678;5.806;2022-09-17T03:07:37;10.60;97.40
62573;DHT22;48626;51.678;5.806;2022-09-17T03:10:04;10.60;97.20
62573;DHT22;48626;51.678;5.806;2022-09-17T03:12:30;10.60;97.20
62573;DHT22;48626;51.678;5.806;2022-09-17T03:14:56;10.50;97.10
62573;DHT22;48626;51.678;5.806;2022-09-17T03:17:22;10.50;97.20
62573;DHT22;48626;51.678;5.806;2022-09-17T03:19:47;10.50;97.20
62573;DHT22;48626;51.678;5.806;2022-09-17T03:22:13;10.50;97.20
62573;DHT22;48626;51.678;5.806;2022-09-17T03:24:38;10.50;97.20
62573;DHT22;48626;51.678;5.806;2022-09-17T03:27:04;10.50;97.20
62573;DHT22;48626;51.678;5.806;2022-09-17T03:29:30;10.50;97.20
62573;DHT22;48626;51.678;5.806;2022-09-17T03:31:56;10.40;97.30
62573;DHT22;48626;51.678;5.806;2022-09-17T03:34:22;10.40;97.40
62573;DHT22;48626;51.678;5.806;2022-09-17T03:36:48;10.40;97.50
62573;DHT22;48626;51.678;5.806;2022-09-17T03:39:14;10.40;97.50
62573;DHT22;48626;51.678;5.806;2022-09-17T03:41:39;10.40;97.50
62573;DHT22;48626;51.678;5.806;2022-09-17T03:44:05;10.40;97.70
62573;DHT22;48626;51.678;5.806;2022-09-17T03:46:31;10.50;97.80
62573;DHT22;48626;51.678;5.806;2022-09-17T03:48:56;10.50;97.90
62573;DHT22;48626;51.678;5.806;2022-09-17T03:51:22;10.60;97.80
62573;DHT22;48626;51.678;5.806;2022-09-17T03:53:47;10.70;97.60
62573;DHT22;48626;51.678;5.806;2022-09-17T03:56:13;10.70;97.50
62573;DHT22;48626;51.678;5.806;2022-09-17T03:58:39;10.70;97.50
62573;DHT22;48626;51.678;5.806;2022-09-17T04:01:04;10.70;97.40
62573;DHT22;48626;51.678;5.806;2022-09-17T04:03:31;10.80;97.40
62573;DHT22;48626;51.678;5.806;2022-09-17T04:05:56;10.80;97.30
62573;DHT22;48626;51.678;5.806;2022-09-17T04:08:22;10.80;97.20
62573;DHT22;48626;51.678;5.806;2022-09-17T04:10:48;10.80;97.20
62573;DHT22;48626;51.678;5.806;2022-09-17T04:13:16;10.80;97.10
62573;DHT22;48626;51.678;5.806;2022-09-17T04:15:43;10.80;97.10
62573;DHT22;48626;51.678;5.806;2022-09-17T04:18:09;10.80;97.10
62573;DHT22;48626;51.678;5.806;2022-09-17T04:20:35;10.80;97.00
62573;DHT22;48626;51.678;5.806;2022-09-17T04:23:01;10.70;96.90
62573;DHT22;48626;51.678;5.806;2022-09-17T04:25:26;10.70;96.90
62573;DHT22;48626;51.678;5.806;2022-09-17T04:27:52;10.70;96.90
62573;DHT22;48626;51.678;5.806;2022-09-17T04:30:18;10.60;96.80
62573;DHT22;48626;51.678;5.806;2022-09-17T04:32:44;10.60;96.70
62573;DHT22;48626;51.678;5.806;2022-09-17T04:35:11;10.60;96.80
62573;DHT22;48626;51.678;5.806;2022-09-17T04:37:36;10.50;96.70
62573;DHT22;48626;51.678;5.806;2022-09-17T04:40:03;10.50;96.80
62573;DHT22;48626;51.678;5.806;2022-09-17T04:42:29;10.40;96.80
62573;DHT22;48626;51.678;5.806;2022-09-17T04:44:55;10.40;97.00
62573;DHT22;48626;51.678;5.806;2022-09-17T04:47:20;10.40;97.00
62573;DHT22;48626;51.678;5.806;2022-09-17T04:49:46;10.40;97.00
62573;DHT22;48626;51.678;5.806;2022-09-17T04:52:12;10.40;97.00
62573;DHT22;48626;51.678;5.806;2022-09-17T04:54:38;10.40;97.00
62573;DHT22;48626;51.678;5.806;2022-09-17T04:57:03;10.30;96.90
62573;DHT22;48626;51.678;5.806;2022-09-17T04:59:29;10.30;96.90
62573;DHT22;48626;51.678;5.806;2022-09-17T05:01:55;10.30;96.90
62573;DHT22;48626;51.678;5.806;2022-09-17T05:04:21;10.30;96.90
62573;DHT22;48626;51.678;5.806;2022-09-17T05:06:46;10.20;97.00
62573;DHT22;48626;51.678;5.806;2022-09-17T05:09:12;10.20;96.90
62573;DHT22;48626;51.678;5.806;2022-09-17T05:11:39;10.20;97.00
62573;DHT22;48626;51.678;5.806;2022-09-17T05:14:04;10.20;97.00
62573;DHT22;48626;51.678;5.806;2022-09-17T05:16:30;10.20;97.10
62573;DHT22;48626;51.678;5.806;2022-09-17T05:18:56;10.20;97.10
62573;DHT22;48626;51.678;5.806;2022-09-17T05:21:22;10.20;97.10
62573;DHT22;48626;51.678;5.806;2022-09-17T05:23:48;10.20;97.20
62573;DHT22;48626;51.678;5.806;2022-09-17T05:26:13;10.20;97.10
62573;DHT22;48626;51.678;5.806;2022-09-17T05:28:40;10.10;97.20
62573;DHT22;48626;51.678;5.806;2022-09-17T05:31:06;10.20;97.30
62573;DHT22;48626;51.678;5.806;2022-09-17T05:33:32;10.20;97.30
62573;DHT22;48626;51.678;5.806;2022-09-17T05:35:57;10.10;97.30
62573;DHT22;48626;51.678;5.806;2022-09-17T05:38:24;10.20;97.30
62573;DHT22;48626;51.678;5.806;2022-09-17T05:40:50;10.10;97.30
62573;DHT22;48626;51.678;5.806;2022-09-17T05:43:16;10.20;97.50
62573;DHT22;48626;51.678;5.806;2022-09-17T05:45:42;10.20;97.50
62573;DHT22;48626;51.678;5.806;2022-09-17T05:48:12;10.20;97.60
62573;DHT22;48626;51.678;5.806;2022-09-17T05:50:38;10.30;97.60
62573;DHT22;48626;51.678;5.806;2022-09-17T05:53:06;10.30;97.50
62573;DHT22;48626;51.678;5.806;2022-09-17T05:55:32;10.30;97.50
62573;DHT22;48626;51.678;5.806;2022-09-17T05:57:59;10.30;97.50
62573;DHT22;48626;51.678;5.806;2022-09-17T06:00:25;10.40;97.50
62573;DHT22;48626;51.678;5.806;2022-09-17T06:02:55;10.40;97.60
62573;DHT22;48626;51.678;5.806;2022-09-17T06:05:22;10.50;97.60
62573;DHT22;48626;51.678;5.806;2022-09-17T06:07:48;10.50;97.50
62573;DHT22;48626;51.678;5.806;2022-09-17T06:10:13;10.60;97.60
62573;DHT22;48626;51.678;5.806;2022-09-17T06:12:39;10.60;97.60
62573;DHT22;48626;51.678;5.806;2022-09-17T06:15:05;10.60;97.60
62573;DHT22;48626;51.678;5.806;2022-09-17T06:17:35;10.70;97.60
62573;DHT22;48626;51.678;5.806;2022-09-17T06:20:02;10.80;97.70
62573;DHT22;48626;51.678;5.806;2022-09-17T06:22:28;10.90;97.50
62573;DHT22;48626;51.678;5.806;2022-09-17T06:24:54;10.90;97.20
62573;DHT22;48626;51.678;5.806;2022-09-17T06:27:20;11.10;97.40
62573;DHT22;48626;51.678;5.806;2022-09-17T06:29:45;11.40;97.20
62573;DHT22;48626;51.678;5.806;2022-09-17T06:32:11;11.70;96.90
62573;DHT22;48626;51.678;5.806;2022-09-17T06:34:40;12.00;97.00
62573;DHT22;48626;51.678;5.806;2022-09-17T06:37:06;12.30;96.50
62573;DHT22;48626;51.678;5.806;2022-09-17T06:39:32;12.50;96.40
62573;DHT22;48626;51.678;5.806;2022-09-17T06:41:57;12.70;95.30
62573;DHT22;48626;51.678;5.806;2022-09-17T06:44:23;12.60;94.50
62573;DHT22;48626;51.678;5.806;2022-09-17T06:46:49;12.50;94.40
62573;DHT22;48626;51.678;5.806;2022-09-17T06:49:18;12.40;94.20
62573;DHT22;48626;51.678;5.806;2022-09-17T06:51:44;12.30;94.60
62573;DHT22;48626;51.678;5.806;2022-09-17T06:54:10;12.30;94.90
62573;DHT22;48626;51.678;5.806;2022-09-17T06:56:35;12.40;94.60
62573;DHT22;48626;51.678;5.806;2022-09-17T06:59:01;12.50;94.60
62573;DHT22;48626;51.678;5.806;2022-09-17T07:01:27;12.50;94.20
62573;DHT22;48626;51.678;5.806;2022-09-17T07:03:52;12.40;94.20
62573;DHT22;48626;51.678;5.806;2022-09-17T07:06:19;12.40;94.20
62573;DHT22;48626;51.678;5.806;2022-09-17T07:08:45;12.30;94.10
62573;DHT22;48626;51.678;5.806;2022-09-17T07:11:11;12.30;94.20
62573;DHT22;48626;51.678;5.806;2022-09-17T07:13:37;12.20;94.30
62573;DHT22;48626;51.678;5.806;2022-09-17T07:16:04;12.10;94.30
62573;DHT22;48626;51.678;5.806;2022-09-17T07:18:30;12.20;94.50
62573;DHT22;48626;51.678;5.806;2022-09-17T07:21:03;12.20;94.70
62573;DHT22;48626;51.678;5.806;2022-09-17T07:23:31;12.30;94.60
62573;DHT22;48626;51.678;5.806;2022-09-17T07:25:59;12.40;94.60
62573;DHT22;48626;51.678;5.806;2022-09-17T07:28:25;12.40;94.60
62573;DHT22;48626;51.678;5.806;2022-09-17T07:30:52;12.50;94.60
62573;DHT22;48626;51.678;5.806;2022-09-17T07:33:19;12.50;94.40
62573;DHT22;48626;51.678;5.806;2022-09-17T07:35:57;12.60;94.40
62573;DHT22;48626;51.678;5.806;2022-09-17T07:38:24;12.80;94.30
62573;DHT22;48626;51.678;5.806;2022-09-17T07:41:08;12.90;93.90
62573;DHT22;48626;51.678;5.806;2022-09-17T07:43:35;13.00;94.00
62573;DHT22;48626;51.678;5.806;2022-09-17T07:46:02;13.10;94.00
62573;DHT22;48626;51.678;5.806;2022-09-17T07:48:29;13.30;93.80
62573;DHT22;48626;51.678;5.806;2022-09-17T07:50:55;13.40;92.60
62573;DHT22;48626;51.678;5.806;2022-09-17T07:53:21;13.60;92.10
62573;DHT22;48626;51.678;5.806;2022-09-17T07:55:54;13.60;91.80
62573;DHT22;48626;51.678;5.806;2022-09-17T07:58:22;13.60;91.50
62573;DHT22;48626;51.678;5.806;2022-09-17T08:00:48;13.50;91.50
62573;DHT22;48626;51.678;5.806;2022-09-17T08:03:14;13.50;91.60
62573;DHT22;48626;51.678;5.806;2022-09-17T08:05:39;13.70;91.90
62573;DHT22;48626;51.678;5.806;2022-09-17T08:08:05;13.90;91.60
62573;DHT22;48626;51.678;5.806;2022-09-17T08:10:31;14.10;91.60
62573;DHT22;48626;51.678;5.806;2022-09-17T08:12:58;14.20;91.10
62573;DHT22;48626;51.678;5.806;2022-09-17T08:15:24;14.30;90.10
62573;DHT22;48626;51.678;5.806;2022-09-17T08:17:50;14.30;90.30
62573;DHT22;48626;51.678;5.806;2022-09-17T08:20:16;14.30;90.20
62573;DHT22;48626;51.678;5.806;2022-09-17T08:22:42;14.40;89.20
62573;DHT22;48626;51.678;5.806;2022-09-17T08:25:09;14.50;89.00
62573;DHT22;48626;51.678;5.806;2022-09-17T08:27:35;14.60;89.30
62573;DHT22;48626;51.678;5.806;2022-09-17T08:30:04;14.60;85.10
62573;DHT22;48626;51.678;5.806;2022-09-17T08:32:29;14.70;86.30
62573;DHT22;48626;51.678;5.806;2022-09-17T08:34:55;14.80;86.60
62573;DHT22;48626;51.678;5.806;2022-09-17T08:37:21;14.80;85.40
62573;DHT22;48626;51.678;5.806;2022-09-17T08:39:47;15.00;85.90
62573;DHT22;48626;51.678;5.806;2022-09-17T08:44:51;15.30;85.20
62573;DHT22;48626;51.678;5.806;2022-09-17T08:49:52;15.30;84.40
62573;DHT22;48626;51.678;5.806;2022-09-17T08:52:45;15.40;84.40
62573;DHT22;48626;51.678;5.806;2022-09-17T08:55:25;15.50;83.50
62573;DHT22;48626;51.678;5.806;2022-09-17T09:00:45;15.60;83.40
62573;DHT22;48626;51.678;5.806;2022-09-17T09:05:51;15.80;80.70
62573;DHT22;48626;51.678;5.806;2022-09-17T09:08:36;16.00;80.50
62573;DHT22;48626;51.678;5.806;2022-09-17T09:11:10;16.20;80.40
62573;DHT22;48626;51.678;5.806;2022-09-17T09:13:51;16.20;77.20
62573;DHT22;48626;51.678;5.806;2022-09-17T09:16:24;16.20;79.10
62573;DHT22;48626;51.678;5.806;2022-09-17T09:18:54;16.40;78.30
62573;DHT22;48626;51.678;5.806;2022-09-17T09:26:50;16.60;76.50
62573;DHT22;48626;51.678;5.806;2022-09-17T09:35:19;16.90;74.10
62573;DHT22;48626;51.678;5.806;2022-09-17T09:38:21;16.90;73.20
62573;DHT22;48626;51.678;5.806;2022-09-17T09:44:08;16.60;74.30
62573;DHT22;48626;51.678;5.806;2022-09-17T09:55:53;15.00;79.60
62573;DHT22;48626;51.678;5.806;2022-09-17T09:58:39;14.30;84.30
62573;DHT22;48626;51.678;5.806;2022-09-17T10:01:28;13.80;89.50
62573;DHT22;48626;51.678;5.806;2022-09-17T10:03:54;13.40;90.40
62573;DHT22;48626;51.678;5.806;2022-09-17T10:06:22;13.30;90.70
62573;DHT22;48626;51.678;5.806;2022-09-17T10:11:24;13.50;93.00
62573;DHT22;48626;51.678;5.806;2022-09-17T10:13:50;13.80;93.30
62573;DHT22;48626;51.678;5.806;2022-09-17T10:16:24;14.30;94.60
62573;DHT22;48626;51.678;5.806;2022-09-17T10:21:30;15.30;95.10
62573;DHT22;48626;51.678;5.806;2022-09-17T10:23:56;15.60;94.00
62573;DHT22;48626;51.678;5.806;2022-09-17T10:26:34;15.90;93.40
62573;DHT22;48626;51.678;5.806;2022-09-17T10:29:18;16.30;93.70
62573;DHT22;48626;51.678;5.806;2022-09-17T10:31:49;16.70;92.10
62573;DHT22;48626;51.678;5.806;2022-09-17T10:36:46;18.00;90.00
62573;DHT22;48626;51.678;5.806;2022-09-17T10:42:21;19.00;83.30
62573;DHT22;48626;51.678;5.806;2022-09-17T10:44:52;19.20;80.30
62573;DHT22;48626;51.678;5.806;2022-09-17T10:50:03;19.80;77.30
62573;DHT22;48626;51.678;5.806;2022-09-17T10:52:39;20.20;74.70
62573;DHT22;48626;51.678;5.806;2022-09-17T11:16:58;20.40;63.80
62573;DHT22;48626;51.678;5.806;2022-09-17T11:19:45;20.60;65.00
62573;DHT22;48626;51.678;5.806;2022-09-17T11:25:49;20.30;61.60
62573;DHT22;48626;51.678;5.806;2022-09-17T11:28:46;19.70;62.80
62573;DHT22;48626;51.678;5.806;2022-09-17T11:42:19;18.60;78.70
62573;DHT22;48626;51.678;5.806;2022-09-17T11:44:53;19.80;76.50
62573;DHT22;48626;51.678;5.806;2022-09-17T11:47:26;20.70;71.60
62573;DHT22;48626;51.678;5.806;2022-09-17T11:50:08;21.50;69.30
62573;DHT22;48626;51.678;5.806;2022-09-17T11:52:56;22.30;66.80
62573;DHT22;48626;51.678;5.806;2022-09-17T11:55:48;23.00;63.60
62573;DHT22;48626;51.678;5.806;2022-09-17T12:01:18;23.10;59.80
62573;DHT22;48626;51.678;5.806;2022-09-17T12:04:20;23.20;59.50
62573;DHT22;48626;51.678;5.806;2022-09-17T12:06:55;23.80;55.60
62573;DHT22;48626;51.678;5.806;2022-09-17T12:09:25;24.30;55.90
62573;DHT22;48626;51.678;5.806;2022-09-17T12:14:50;25.20;53.70
62573;DHT22;48626;51.678;5.806;2022-09-17T12:17:27;25.80;53.20
62573;DHT22;48626;51.678;5.806;2022-09-17T12:19:58;26.00;47.00
62573;DHT22;48626;51.678;5.806;2022-09-17T12:22:29;26.10;47.50
62573;DHT22;48626;51.678;5.806;2022-09-17T12:24:56;25.70;45.40
62573;DHT22;48626;51.678;5.806;2022-09-17T12:30:20;23.70;48.50
62573;DHT22;48626;51.678;5.806;2022-09-17T12:35:57;22.40;48.30
62573;DHT22;48626;51.678;5.806;2022-09-17T12:41:21;22.20;51.40
62573;DHT22;48626;51.678;5.806;2022-09-17T12:52:04;20.40;53.30
62573;DHT22;48626;51.678;5.806;2022-09-17T12:57:19;22.10;53.00
62573;DHT22;48626;51.678;5.806;2022-09-17T13:00:07;22.90;52.80
62573;DHT22;48626;51.678;5.806;2022-09-17T13:19:36;21.80;52.80
62573;DHT22;48626;51.678;5.806;2022-09-17T13:22:06;21.10;49.80
62573;DHT22;48626;51.678;5.806;2022-09-17T13:24:35;20.60;52.30
62573;DHT22;48626;51.678;5.806;2022-09-17T13:27:03;20.10;53.40
62573;DHT22;48626;51.678;5.806;2022-09-17T13:40:31;19.20;58.60
62573;DHT22;48626;51.678;5.806;2022-09-17T13:43:09;19.10;58.60
62573;DHT22;48626;51.678;5.806;2022-09-17T13:48:28;18.80;55.70
62573;DHT22;48626;51.678;5.806;2022-09-17T13:50:56;18.80;58.80
62573;DHT22;48626;51.678;5.806;2022-09-17T13:53:24;18.80;59.20
62573;DHT22;48626;51.678;5.806;2022-09-17T13:55:55;18.80;60.50
62573;DHT22;48626;51.678;5.806;2022-09-17T13:58:33;18.80;60.30
62573;DHT22;48626;51.678;5.806;2022-09-17T14:01:10;18.60;60.80
62573;DHT22;48626;51.678;5.806;2022-09-17T14:08:48;17.80;65.20
62573;DHT22;48626;51.678;5.806;2022-09-17T14:22:16;16.90;69.50
62573;DHT22;48626;51.678;5.806;2022-09-17T14:24:47;16.70;69.40
62573;DHT22;48626;51.678;5.806;2022-09-17T14:30:25;16.50;67.50
62573;DHT22;48626;51.678;5.806;2022-09-17T14:33:15;16.40;67.70
62573;DHT22;48626;51.678;5.806;2022-09-17T14:35:47;16.30;67.00
62573;DHT22;48626;51.678;5.806;2022-09-17T14:41:15;16.10;66.90
62573;DHT22;48626;51.678;5.806;2022-09-17T14:48:48;16.30;67.30
62573;DHT22;48626;51.678;5.806;2022-09-17T14:54:17;16.80;69.30
62573;DHT22;48626;51.678;5.806;2022-09-17T14:59:49;17.00;67.60
62573;DHT22;48626;51.678;5.806;2022-09-17T15:04:53;16.70;67.10
62573;DHT22;48626;51.678;5.806;2022-09-17T15:07:20;16.60;66.60
62573;DHT22;48626;51.678;5.806;2022-09-17T15:09:46;16.50;65.70
62573;DHT22;48626;51.678;5.806;2022-09-17T15:12:16;16.50;65.40
62573;DHT22;48626;51.678;5.806;2022-09-17T15:14:44;16.60;65.80
62573;DHT22;48626;51.678;5.806;2022-09-17T15:17:13;16.80;63.90
62573;DHT22;48626;51.678;5.806;2022-09-17T15:19:45;16.90;64.30
62573;DHT22;48626;51.678;5.806;2022-09-17T15:22:22;17.00;63.60
62573;DHT22;48626;51.678;5.806;2022-09-17T15:27:53;16.70;62.10
62573;DHT22;48626;51.678;5.806;2022-09-17T15:30:22;16.70;62.40
62573;DHT22;48626;51.678;5.806;2022-09-17T15:32:49;16.50;63.90
62573;DHT22;48626;51.678;5.806;2022-09-17T15:35:16;16.40;63.30
62573;DHT22;48626;51.678;5.806;2022-09-17T15:37:43;16.40;64.00
62573;DHT22;48626;51.678;5.806;2022-09-17T15:40:33;16.40;64.70
62573;DHT22;48626;51.678;5.806;2022-09-17T15:45:52;16.40;62.60
62573;DHT22;48626;51.678;5.806;2022-09-17T15:50:57;16.30;62.30
62573;DHT22;48626;51.678;5.806;2022-09-17T15:53:29;16.20;63.70
62573;DHT22;48626;51.678;5.806;2022-09-17T16:08:53;15.90;66.00
62573;DHT22;48626;51.678;5.806;2022-09-17T16:11:22;15.80;66.40
62573;DHT22;48626;51.678;5.806;2022-09-17T16:13:49;15.80;66.90
62573;DHT22;48626;51.678;5.806;2022-09-17T16:16:17;15.80;65.70
62573;DHT22;48626;51.678;5.806;2022-09-17T16:18:43;15.80;65.70
62573;DHT22;48626;51.678;5.806;2022-09-17T16:21:10;15.80;66.20
62573;DHT22;48626;51.678;5.806;2022-09-17T16:23:36;15.80;66.40
62573;DHT22;48626;51.678;5.806;2022-09-17T16:26:02;15.80;66.20
62573;DHT22;48626;51.678;5.806;2022-09-17T16:28:29;15.80;65.00
62573;DHT22;48626;51.678;5.806;2022-09-17T16:30:55;15.90;64.60
62573;DHT22;48626;51.678;5.806;2022-09-17T16:33:21;16.00;64.40
62573;DHT22;48626;51.678;5.806;2022-09-17T16:35:47;16.10;64.30
62573;DHT22;48626;51.678;5.806;2022-09-17T16:38:13;16.20;64.40
62573;DHT22;48626;51.678;5.806;2022-09-17T16:40:43;16.30;63.20
62573;DHT22;48626;51.678;5.806;2022-09-17T16:43:11;16.30;62.00
62573;DHT22;48626;51.678;5.806;2022-09-17T16:45:36;16.30;62.50
62573;DHT22;48626;51.678;5.806;2022-09-17T16:48:03;16.20;62.70
62573;DHT22;48626;51.678;5.806;2022-09-17T16:50:29;16.20;62.20
62573;DHT22;48626;51.678;5.806;2022-09-17T16:52:54;16.10;61.10
62573;DHT22;48626;51.678;5.806;2022-09-17T16:55:20;15.90;61.70
62573;DHT22;48626;51.678;5.806;2022-09-17T16:57:46;15.90;61.20
62573;DHT22;48626;51.678;5.806;2022-09-17T17:00:15;15.80;61.80
62573;DHT22;48626;51.678;5.806;2022-09-17T17:02:42;15.70;62.30
62573;DHT22;48626;51.678;5.806;2022-09-17T17:05:08;15.60;62.50
62573;DHT22;48626;51.678;5.806;2022-09-17T17:07:35;15.50;62.70
62573;DHT22;48626;51.678;5.806;2022-09-17T17:10:05;15.50;63.00
62573;DHT22;48626;51.678;5.806;2022-09-17T17:12:34;15.40;63.40
62573;DHT22;48626;51.678;5.806;2022-09-17T17:15:00;15.40;63.20
62573;DHT22;48626;51.678;5.806;2022-09-17T17:17:27;15.30;63.40
62573;DHT22;48626;51.678;5.806;2022-09-17T17:19:54;15.30;63.40
62573;DHT22;48626;51.678;5.806;2022-09-17T17:22:20;15.20;63.70
62573;DHT22;48626;51.678;5.806;2022-09-17T17:24:45;15.20;63.90
62573;DHT22;48626;51.678;5.806;2022-09-17T17:27:11;15.20;63.60
62573;DHT22;48626;51.678;5.806;2022-09-17T17:29:38;15.20;63.60
62573;DHT22;48626;51.678;5.806;2022-09-17T17:32:04;15.10;63.50
62573;DHT22;48626;51.678;5.806;2022-09-17T17:34:30;15.20;62.80
62573;DHT22;48626;51.678;5.806;2022-09-17T17:36:56;15.20;61.50
62573;DHT22;48626;51.678;5.806;2022-09-17T17:39:22;15.10;63.00
62573;DHT22;48626;51.678;5.806;2022-09-17T17:41:48;15.10;63.20
62573;DHT22;48626;51.678;5.806;2022-09-17T17:44:14;15.00;64.10
62573;DHT22;48626;51.678;5.806;2022-09-17T17:46:39;14.60;67.70
62573;DHT22;48626;51.678;5.806;2022-09-17T17:49:06;14.30;70.50
62573;DHT22;48626;51.678;5.806;2022-09-17T17:51:33;14.00;72.60
62573;DHT22;48626;51.678;5.806;2022-09-17T17:53:59;13.90;73.70
62573;DHT22;48626;51.678;5.806;2022-09-17T17:56:25;13.80;74.90
62573;DHT22;48626;51.678;5.806;2022-09-17T17:58:57;13.70;76.00
62573;DHT22;48626;51.678;5.806;2022-09-17T18:01:25;13.50;77.00
62573;DHT22;48626;51.678;5.806;2022-09-17T18:03:56;13.40;78.30
62573;DHT22;48626;51.678;5.806;2022-09-17T18:06:22;13.40;79.50
62573;DHT22;48626;51.678;5.806;2022-09-17T18:08:48;13.50;79.60
62573;DHT22;48626;51.678;5.806;2022-09-17T18:11:13;13.50;79.60
62573;DHT22;48626;51.678;5.806;2022-09-17T18:13:39;13.50;79.40
62573;DHT22;48626;51.678;5.806;2022-09-17T18:16:06;13.50;79.90
62573;DHT22;48626;51.678;5.806;2022-09-17T18:18:42;13.50;80.10
62573;DHT22;48626;51.678;5.806;2022-09-17T18:21:10;13.50;80.50
62573;DHT22;48626;51.678;5.806;2022-09-17T18:23:39;13.50;81.10
62573;DHT22;48626;51.678;5.806;2022-09-17T18:26:08;13.50;81.30
62573;DHT22;48626;51.678;5.806;2022-09-17T18:28:35;13.40;81.00
62573;DHT22;48626;51.678;5.806;2022-09-17T18:36:28;13.30;81.80
62573;DHT22;48626;51.678;5.806;2022-09-17T18:38:56;13.30;82.30
62573;DHT22;48626;51.678;5.806;2022-09-17T18:41:28;13.30;82.20
62573;DHT22;48626;51.678;5.806;2022-09-17T18:43:55;13.30;82.60
62573;DHT22;48626;51.678;5.806;2022-09-17T18:46:21;13.30;83.10
62573;DHT22;48626;51.678;5.806;2022-09-17T18:48:54;13.30;83.60
62573;DHT22;48626;51.678;5.806;2022-09-17T18:51:21;13.30;84.00
62573;DHT22;48626;51.678;5.806;2022-09-17T18:53:47;13.30;84.00
62573;DHT22;48626;51.678;5.806;2022-09-17T18:56:15;13.30;84.30
62573;DHT22;48626;51.678;5.806;2022-09-17T18:58:46;13.40;84.50
62573;DHT22;48626;51.678;5.806;2022-09-17T19:01:12;13.30;84.60
62573;DHT22;48626;51.678;5.806;2022-09-17T19:03:38;13.30;84.60
62573;DHT22;48626;51.678;5.806;2022-09-17T19:06:06;13.30;84.80
62573;DHT22;48626;51.678;5.806;2022-09-17T19:08:31;13.20;85.20
62573;DHT22;48626;51.678;5.806;2022-09-17T19:10:57;13.10;85.80
62573;DHT22;48626;51.678;5.806;2022-09-17T19:13:24;13.00;85.70
62573;DHT22;48626;51.678;5.806;2022-09-17T19:15:50;13.00;86.40
62573;DHT22;48626;51.678;5.806;2022-09-17T19:18:16;13.10;86.60
62573;DHT22;48626;51.678;5.806;2022-09-17T19:20:43;13.10;86.40
62573;DHT22;48626;51.678;5.806;2022-09-17T19:23:08;13.10;87.10
62573;DHT22;48626;51.678;5.806;2022-09-17T19:25:35;13.00;87.00
62573;DHT22;48626;51.678;5.806;2022-09-17T19:28:04;13.00;87.50
62573;DHT22;48626;51.678;5.806;2022-09-17T19:30:31;13.00;87.40
62573;DHT22;48626;51.678;5.806;2022-09-17T19:32:57;13.00;87.10
62573;DHT22;48626;51.678;5.806;2022-09-17T19:35:23;12.90;87.40
62573;DHT22;48626;51.678;5.806;2022-09-17T19:37:49;12.80;88.10
62573;DHT22;48626;51.678;5.806;2022-09-17T19:40:16;12.70;88.10
62573;DHT22;48626;51.678;5.806;2022-09-17T19:42:42;12.60;88.40